Time;durP1;ratioP1;P1;durP2;ratioP2;P2;SDS_P1;SDS_P2;PMS_P1;PMS_P2;Temp;Humidity;BMP_temperature;BMP_pressure;BME280_temperature;BME280_humidity;BME280_pressure;Samples;Min_cycle;Max_cycle;Signal;HPM_P1;HPM_P2
2022/08/11 00:01:54;;;;;;;8.02;5.45;;;17.60;99.90;;;;;;5096658;28;20117;-65
2022/08/11 00:04:23;;;;;;;6.65;4.88;;;17.60;99.90;;;;;;5100221;28;20036;-65
2022/08/11 00:06:51;;;;;;;8.45;5.43;;;17.50;99.90;;;;;;5102593;28;20062;-65
2022/08/11 00:09:20;;;;;;;9.32;5.80;;;17.40;99.90;;;;;;5097068;28;20047;-65
2022/08/11 00:11:54;;;;;;;6.00;5.28;;;17.40;99.90;;;;;;5100181;28;20084;-65
2022/08/11 00:14:21;;;;;;;7.28;5.30;;;17.30;99.90;;;;;;5096963;28;20072;-65
2022/08/11 00:16:59;;;;;;;7.10;5.47;;;17.20;99.90;;;;;;5103651;28;20073;-65
2022/08/11 00:19:28;;;;;;;8.07;5.75;;;17.20;99.90;;;;;;5103899;28;20527;-65
2022/08/11 00:21:54;;;;;;;6.97;5.38;;;17.10;99.90;;;;;;5104722;28;20070;-65
2022/08/11 00:24:22;;;;;;;8.57;5.50;;;17.10;99.90;;;;;;5105999;28;20099;-65
2022/08/11 00:26:53;;;;;;;9.55;5.82;;;17.10;99.90;;;;;;5102497;28;20095;-65
2022/08/11 00:29:20;;;;;;;7.43;5.80;;;17.10;99.90;;;;;;5097977;28;20059;-65
2022/08/11 00:31:51;;;;;;;10.40;6.10;;;17.00;99.90;;;;;;5093332;28;20053;-65
2022/08/11 00:34:21;;;;;;;6.65;5.95;;;17.10;99.90;;;;;;5097797;28;20040;-65
2022/08/11 00:37:15;;;;;;;8.80;6.65;;;17.10;99.90;;;;;;5093682;28;20044;-65
2022/08/11 00:39:45;;;;;;;9.32;5.88;;;17.10;99.90;;;;;;5093387;28;20048;-65
2022/08/11 00:43:00;;;;;;;7.32;5.40;;;17.00;99.90;;;;;;5095982;28;20126;-65
2022/08/11 00:45:39;;;;;;;9.68;6.68;;;17.10;99.90;;;;;;5097650;28;20089;-65
2022/08/11 00:48:27;;;;;;;8.38;6.00;;;17.00;99.90;;;;;;5098671;28;20041;-65
2022/08/11 00:51:04;;;;;;;6.13;5.40;;;17.00;99.90;;;;;;5095190;28;20083;-65
2022/08/11 00:54:07;;;;;;;8.45;5.50;;;17.00;99.90;;;;;;5090244;28;20101;-65
2022/08/11 00:57:25;;;;;;;7.30;6.30;;;16.90;99.90;;;;;;5076263;28;20095;-65
2022/08/11 01:00:25;;;;;;;11.20;6.60;;;16.70;99.90;;;;;;5081519;28;20095;-65
2022/08/11 01:03:03;;;;;;;7.65;6.20;;;16.60;99.90;;;;;;5039806;28;20054;-65
2022/08/11 01:05:55;;;;;;;8.95;6.00;;;16.60;99.90;;;;;;5038947;28;20063;-65
2022/08/11 01:08:57;;;;;;;9.65;7.68;;;16.60;99.90;;;;;;5042777;28;20046;-65
2022/08/11 01:12:03;;;;;;;7.20;6.18;;;16.60;99.90;;;;;;5026817;28;20116;-65
2022/08/11 01:15:14;;;;;;;9.60;5.32;;;16.50;99.90;;;;;;5042050;28;20041;-65
2022/08/11 01:17:57;;;;;;;9.32;5.70;;;16.50;99.90;;;;;;5041873;28;20045;-65
2022/08/11 01:21:00;;;;;;;7.57;5.57;;;16.30;99.90;;;;;;5040565;28;20045;-65
2022/08/11 01:23:59;;;;;;;8.23;6.65;;;16.30;99.90;;;;;;5019560;28;20128;-65
2022/08/11 01:26:34;;;;;;;9.00;6.75;;;16.10;99.90;;;;;;5022972;28;20068;-65
2022/08/11 01:29:40;;;;;;;8.27;6.30;;;16.10;99.90;;;;;;5022544;28;20049;-65
2022/08/11 01:32:38;;;;;;;9.93;6.22;;;16.10;99.90;;;;;;5038306;28;20095;-65
2022/08/11 01:35:37;;;;;;;8.75;6.53;;;16.10;99.90;;;;;;5031054;28;20093;-65
2022/08/11 01:38:37;;;;;;;10.00;7.28;;;16.10;99.90;;;;;;5046590;28;20058;-65
2022/08/11 01:41:21;;;;;;;;;;;16.20;99.90;;;;;;5094608;28;20048;-65
2022/08/11 01:44:37;;;;;;;10.98;7.43;;;16.20;99.90;;;;;;5103102;28;19981;-65
2022/08/11 01:47:08;;;;;;;10.07;6.97;;;16.20;99.90;;;;;;5040680;28;20064;-65
2022/08/11 01:49:46;;;;;;;7.78;5.50;;;16.20;99.90;;;;;;5041299;28;20056;-65
2022/08/11 01:52:21;;;;;;;7.38;6.15;;;16.10;99.90;;;;;;5014157;28;20065;-65
2022/08/11 01:55:22;;;;;;;7.28;6.03;;;15.90;99.90;;;;;;5022667;28;20105;-65
2022/08/11 01:58:11;;;;;;;8.07;6.25;;;15.90;99.90;;;;;;5022440;28;20053;-65
2022/08/11 02:00:53;;;;;;;8.25;6.55;;;15.80;99.90;;;;;;5016645;28;20129;-65
2022/08/11 02:03:30;;;;;;;9.02;7.18;;;15.80;99.90;;;;;;5021186;28;20061;-65
2022/08/11 02:09:17;;;;;;;11.13;8.55;;;15.90;99.90;;;;;;5028359;28;20114;-65
2022/08/11 02:11:45;;;;;;;12.00;9.73;;;16.00;99.90;;;;;;5026190;28;20056;-65
2022/08/11 02:14:33;;;;;;;13.13;10.40;;;16.20;99.90;;;;;;5042997;28;20083;-65
2022/08/11 02:17:17;;;;;;;11.68;9.27;;;16.30;99.90;;;;;;5021831;28;20057;-65
2022/08/11 02:23:40;;;;;;;13.52;9.10;;;16.50;99.90;;;;;;5078548;28;20111;-65
2022/08/11 02:26:24;;;;;;;14.05;9.65;;;16.50;99.90;;;;;;5010901;28;20053;-65
2022/08/11 02:29:09;;;;;;;12.95;9.00;;;16.60;99.90;;;;;;5021439;28;20042;-65
2022/08/11 02:34:55;;;;;;;12.38;10.23;;;16.50;99.90;;;;;;5026459;28;20063;-65
2022/08/11 02:37:26;;;;;;;12.77;9.40;;;16.40;99.90;;;;;;5028245;28;20049;-65
2022/08/11 02:39:57;;;;;;;12.00;9.05;;;16.40;99.90;;;;;;5019223;28;20050;-65
2022/08/11 02:42:38;;;;;;;9.90;8.05;;;16.40;99.90;;;;;;5025080;28;20129;-65
2022/08/11 02:45:38;;;;;;;9.68;8.18;;;16.20;99.90;;;;;;5019823;28;20089;-65
2022/08/11 02:51:18;;;;;;;11.02;9.20;;;16.00;99.90;;;;;;5037826;28;19928;-65
2022/08/11 02:54:22;;;;;;;12.82;10.57;;;16.10;99.90;;;;;;5028187;28;20057;-65
2022/08/11 02:56:53;;;;;;;15.75;10.48;;;16.10;99.90;;;;;;5016362;28;20102;-65
2022/08/11 03:02:34;;;;;;;14.25;10.20;;;16.10;99.90;;;;;;5073113;28;20055;-65
2022/08/11 03:05:19;;;;;;;12.35;9.90;;;16.10;99.90;;;;;;5105791;28;20042;-65
2022/08/11 03:08:22;;;;;;;12.18;8.05;;;16.10;99.90;;;;;;5097601;28;20079;-65
2022/08/11 03:17:20;;;;;;;9.68;7.63;;;15.60;99.90;;;;;;5094827;28;20044;-65
2022/08/11 03:19:46;;;;;;;13.82;9.02;;;15.60;99.90;;;;;;5076175;28;20036;-65
2022/08/11 03:22:31;;;;;;;12.30;9.90;;;15.60;99.90;;;;;;5104940;28;20044;-65
2022/08/11 03:25:07;;;;;;;12.70;9.93;;;15.60;99.90;;;;;;5095873;28;20040;-65
2022/08/11 03:27:51;;;;;;;14.07;9.50;;;15.60;99.90;;;;;;5105800;28;20036;-65
2022/08/11 03:30:41;;;;;;;11.93;8.40;;;15.50;99.90;;;;;;5099156;28;20048;-65
2022/08/11 03:36:28;;;;;;;12.07;9.13;;;15.30;99.90;;;;;;5103252;28;20044;-65
2022/08/11 03:39:02;;;;;;;15.35;8.40;;;15.10;99.90;;;;;;5102592;28;20071;-65
2022/08/11 03:41:43;;;;;;;11.30;8.18;;;15.00;99.90;;;;;;5098045;28;20040;-65
2022/08/11 03:44:31;;;;;;;13.55;10.40;;;15.10;99.90;;;;;;5094371;28;20044;-65
2022/08/11 03:47:28;;;;;;;12.27;9.82;;;15.20;99.90;;;;;;5073302;28;20048;-65
2022/08/11 03:50:25;;;;;;;15.77;10.68;;;15.20;99.90;;;;;;5103010;28;20090;-65
2022/08/11 03:53:19;;;;;;;14.73;9.65;;;15.10;99.90;;;;;;5101835;28;20059;-65
2022/08/11 03:56:20;;;;;;;14.13;10.25;;;15.00;99.90;;;;;;5099419;28;20047;-65
2022/08/11 03:59:17;;;;;;;13.82;10.18;;;15.00;99.90;;;;;;5098375;28;20048;-65
2022/08/11 04:02:04;;;;;;;13.38;10.60;;;15.00;99.90;;;;;;5102747;28;20058;-65
2022/08/11 04:04:34;;;;;;;13.23;10.48;;;15.20;99.90;;;;;;5098540;28;20050;-65
2022/08/11 04:07:25;;;;;;;16.00;11.48;;;15.20;99.90;;;;;;5093935;28;20048;-65
2022/08/11 04:10:07;;;;;;;13.88;10.68;;;15.30;99.90;;;;;;5092768;28;20483;-65
2022/08/11 04:12:57;;;;;;;18.13;11.00;;;15.20;99.90;;;;;;5102607;28;20430;-65
2022/08/11 04:16:02;;;;;;;11.63;9.70;;;15.20;99.90;;;;;;5093653;28;20079;-65
2022/08/11 04:19:09;;;;;;;19.52;10.77;;;15.20;99.90;;;;;;5098492;28;20068;-65
2022/08/11 04:22:21;;;;;;;17.52;11.55;;;15.20;99.90;;;;;;5081501;28;20045;-65
2022/08/11 04:25:15;;;;;;;15.52;10.07;;;15.10;99.90;;;;;;5093746;28;20060;-65
2022/08/11 04:28:22;;;;;;;13.93;9.98;;;15.00;99.90;;;;;;5094623;28;20047;-65
2022/08/11 04:31:10;;;;;;;14.77;9.55;;;15.00;99.90;;;;;;5100560;28;20051;-65
2022/08/11 04:33:58;;;;;;;14.35;10.00;;;15.10;99.90;;;;;;5088232;28;20283;-65
2022/08/11 04:40:32;;;;;;;15.80;10.50;;;15.20;99.90;;;;;;5098125;28;20084;-65
2022/08/11 04:46:21;;;;;;;12.02;9.15;;;15.20;99.90;;;;;;5093363;28;20568;-65
2022/08/11 05:01:51;;;;;;;14.98;12.13;;;15.10;99.90;;;;;;5100676;28;20078;-65
2022/08/11 05:07:48;;;;;;;14.63;12.55;;;15.20;99.90;;;;;;5092619;28;20063;-65
2022/08/11 05:10:35;;;;;;;11.60;10.40;;;15.30;99.90;;;;;;5092316;28;20058;-65
2022/08/11 05:36:46;;;;;;;15.82;13.43;;;15.70;99.90;;;;;;5101889;28;20052;-65
2022/08/11 05:58:43;;;;;;;16.50;14.38;;;16.30;99.90;;;;;;5103084;28;20066;-65
2022/08/11 06:01:11;;;;;;;20.77;16.17;;;16.50;99.90;;;;;;5102128;28;20052;-65
2022/08/11 06:06:24;;;;;;;21.77;16.13;;;16.60;99.90;;;;;;5100548;28;20071;-65
2022/08/11 06:08:55;;;;;;;18.70;14.15;;;16.70;99.90;;;;;;5100718;28;20054;-65
2022/08/11 06:11:23;;;;;;;17.67;15.20;;;16.70;99.90;;;;;;5091749;28;20049;-65
2022/08/11 06:13:51;;;;;;;18.15;15.68;;;16.70;99.90;;;;;;5090186;28;20078;-65
2022/08/11 06:16:24;;;;;;;17.45;14.05;;;16.80;99.90;;;;;;5093870;28;20052;-65
2022/08/11 06:18:50;;;;;;;16.88;14.40;;;16.90;99.90;;;;;;5101477;28;20396;-65
2022/08/11 06:21:17;;;;;;;16.60;14.55;;;17.00;99.90;;;;;;5096050;28;20045;-65
2022/08/11 06:23:44;;;;;;;17.20;15.40;;;17.10;99.90;;;;;;5099400;28;20055;-65
2022/08/11 06:26:12;;;;;;;18.80;15.27;;;17.20;99.90;;;;;;5092459;28;20104;-65
2022/08/11 06:28:44;;;;;;;16.20;13.88;;;17.20;99.90;;;;;;5102160;28;20062;-65
2022/08/11 06:31:13;;;;;;;19.88;13.95;;;17.30;99.90;;;;;;5100091;28;20048;-65
2022/08/11 06:34:07;;;;;;;17.27;14.25;;;17.40;99.90;;;;;;5091188;28;20076;-65
2022/08/11 06:36:56;;;;;;;19.58;12.55;;;17.40;99.90;;;;;;5100851;28;20051;-65
2022/08/11 06:39:51;;;;;;;16.77;11.67;;;17.50;99.90;;;;;;5098364;28;20052;-65
2022/08/11 06:42:38;;;;;;;15.55;12.57;;;17.60;99.90;;;;;;5091278;28;20298;-65
2022/08/11 06:45:34;;;;;;;15.20;12.38;;;17.70;99.90;;;;;;5102504;28;20049;-65
2022/08/11 06:48:01;;;;;;;15.23;11.20;;;17.80;99.90;;;;;;5101815;28;20404;-65
2022/08/11 06:53:17;;;;;;;12.93;11.48;;;18.00;99.90;;;;;;5104766;28;20060;-65
2022/08/11 07:01:56;;;;;;;15.95;11.13;;;18.30;99.90;;;;;;5099111;28;20085;-65
2022/08/11 07:04:50;;;;;;;16.17;10.90;;;18.30;99.90;;;;;;5102150;28;20085;-65
2022/08/11 07:16:43;;;;;;;13.93;10.38;;;18.70;99.90;;;;;;5100197;28;20056;-65
2022/08/11 07:30:40;;;;;;;11.30;9.00;;;19.10;99.90;;;;;;5105592;28;20130;-65
2022/08/11 07:33:08;;;;;;;14.50;9.73;;;19.20;99.90;;;;;;5104761;28;20630;-65
2022/08/11 07:35:54;;;;;;;9.40;8.00;;;19.30;99.90;;;;;;5104952;28;20040;-65
2022/08/11 07:38:42;;;;;;;10.20;8.65;;;19.30;99.90;;;;;;5103009;28;20135;-65
2022/08/11 07:41:15;;;;;;;13.10;8.43;;;19.40;99.90;;;;;;5082607;28;20036;-65
2022/08/11 07:43:43;;;;;;;12.63;8.30;;;19.50;99.90;;;;;;5098574;28;20048;-65
2022/08/11 07:54:27;;;;;;;15.15;8.85;;;19.80;99.90;;;;;;5103490;28;20070;-65
2022/08/11 07:56:53;;;;;;;9.60;7.97;;;19.90;99.90;;;;;;5103861;28;20063;-65
2022/08/11 08:18:37;;;;;;;5.20;4.63;;;20.70;99.90;;;;;;5098170;28;20048;-65
2022/08/11 08:21:10;;;;;;;7.20;5.00;;;20.90;99.90;;;;;;5102669;28;20074;-65
2022/08/11 08:23:38;;;;;;;6.05;4.40;;;21.00;99.90;;;;;;5103971;28;20055;-65
2022/08/11 08:30:46;;;;;;;5.50;3.55;;;21.10;99.90;;;;;;5095749;28;20048;-65
2022/08/11 08:31:47;;;;;;;6.40;3.50;;;21.30;99.90;;;;;;5097124;28;20048;-65
2022/08/11 08:34:14;;;;;;;5.90;3.20;;;21.30;99.90;;;;;;5098064;28;20102;-65
2022/08/11 08:36:44;;;;;;;5.43;3.42;;;21.40;99.90;;;;;;5105427;28;20054;-65
2022/08/11 08:39:12;;;;;;;8.73;3.28;;;21.50;99.90;;;;;;5098557;28;20052;-65
2022/08/11 08:41:38;;;;;;;5.50;3.92;;;21.50;99.90;;;;;;5093010;28;20048;-65
2022/08/11 08:44:09;;;;;;;4.68;3.20;;;21.60;99.90;;;;;;5097263;28;20040;-65
2022/08/11 08:46:50;;;;;;;6.25;2.97;;;21.70;99.90;;;;;;5096899;28;20048;-65
2022/08/11 08:49:20;;;;;;;6.05;3.53;;;21.80;99.90;;;;;;5098879;28;20052;-65
2022/08/11 08:51:51;;;;;;;6.22;3.00;;;22.00;99.90;;;;;;5099678;28;20055;-65
2022/08/11 08:54:20;;;;;;;7.22;3.10;;;22.10;99.90;;;;;;5105201;28;20438;-65
2022/08/11 08:56:49;;;;;;;5.93;2.90;;;22.20;99.90;;;;;;5098307;28;20046;-65
2022/08/11 08:59:16;;;;;;;4.47;3.00;;;22.40;99.90;;;;;;5102848;28;20451;-65
2022/08/11 09:01:47;;;;;;;6.10;2.60;;;22.40;99.90;;;;;;5104519;28;20040;-65
2022/08/11 09:04:14;;;;;;;7.55;3.15;;;22.50;99.90;;;;;;5099827;28;20449;-65
2022/08/11 09:06:44;;;;;;;3.55;2.17;;;22.70;99.90;;;;;;5101387;28;20055;-65
2022/08/11 09:09:13;;;;;;;4.97;2.38;;;22.90;99.90;;;;;;5098496;28;20059;-65
2022/08/11 09:11:50;;;;;;;4.15;2.42;;;23.00;99.90;;;;;;5093293;28;20492;-65
2022/08/11 09:14:59;;;;;;;4.10;2.40;;;23.00;99.90;;;;;;5096053;28;20068;-65
2022/08/11 09:17:11;;;;;;;7.05;2.08;;;23.10;99.90;;;;;;5085150;28;20433;-65
2022/08/11 09:19:37;;;;;;;5.00;2.80;;;23.20;99.90;;;;;;5102274;28;20124;-65
2022/08/11 09:27:34;;;;;;;4.13;2.20;;;23.50;99.90;;;;;;5100371;28;20055;-65
2022/08/11 09:30:00;;;;;;;4.43;2.10;;;23.70;99.90;;;;;;5103228;28;20052;-65
2022/08/11 09:32:28;;;;;;;5.78;2.25;;;23.80;99.90;;;;;;5075508;28;20044;-65
2022/08/11 09:34:54;;;;;;;4.53;2.00;;;23.80;99.90;;;;;;5103158;28;20402;-65
2022/08/11 09:45:38;;;;;;;3.60;2.22;;;24.20;99.90;;;;;;5087509;28;20050;-65
2022/08/11 09:48:04;;;;;;;5.90;2.20;;;24.20;99.90;;;;;;5096994;28;20059;-65
2022/08/11 09:50:37;;;;;;;4.22;2.05;;;24.30;99.90;;;;;;5099102;28;20040;-65
2022/08/11 09:53:04;;;;;;;4.13;2.20;;;24.30;99.90;;;;;;5101981;28;20059;-65
2022/08/11 09:55:32;;;;;;;3.63;1.85;;;24.40;99.90;;;;;;5097309;28;20072;-65
2022/08/11 09:58:17;;;;;;;6.93;2.38;;;24.50;99.90;;;;;;5098257;28;20051;-65
2022/08/11 10:00:46;;;;;;;3.70;1.90;;;24.60;99.90;;;;;;5091097;28;20581;-65
2022/08/11 10:03:21;;;;;;;2.40;2.00;;;24.70;99.90;;;;;;5098418;28;20071;-65
2022/08/11 10:08:44;;;;;;;2.58;1.90;;;24.90;99.90;;;;;;5086214;28;20574;-65
2022/08/11 10:11:13;;;;;;;3.45;1.70;;;25.00;99.90;;;;;;5111594;28;20123;-65
2022/08/11 10:16:29;;;;;;;3.20;2.30;;;25.20;99.60;;;;;;5101310;28;20055;-65
2022/08/11 10:19:00;;;;;;;3.55;2.10;;;25.20;99.40;;;;;;5098308;28;20103;-65
2022/08/11 10:21:33;;;;;;;2.92;2.38;;;25.20;98.90;;;;;;5099820;28;20395;-65
2022/08/11 10:26:53;;;;;;;2.30;1.83;;;25.20;99.70;;;;;;5099483;28;20079;-65
2022/08/11 10:35:00;;;;;;;5.85;2.10;;;25.70;97.80;;;;;;5093897;28;20074;-65
2022/08/11 10:37:33;;;;;;;3.83;2.45;;;25.70;97.80;;;;;;5107699;28;20040;-66
2022/08/11 10:40:00;;;;;;;4.90;2.03;;;25.80;97.40;;;;;;5108803;28;20036;-65
2022/08/11 10:47:56;;;;;;;2.75;1.85;;;25.90;97.60;;;;;;5100376;28;20085;-65
2022/08/11 10:58:48;;;;;;;4.30;2.10;;;26.30;96.50;;;;;;5103518;28;20059;-66
2022/08/11 11:01:25;;;;;;;3.20;1.85;;;26.40;96.80;;;;;;5104704;28;20048;-66
2022/08/11 11:03:56;;;;;;;5.20;2.22;;;26.40;97.00;;;;;;5094491;28;20095;-66
2022/08/11 11:06:25;;;;;;;3.05;1.92;;;26.50;96.50;;;;;;5095334;28;20079;-66
2022/08/11 11:09:06;;;;;;;4.80;1.90;;;26.60;95.50;;;;;;5100752;28;20045;-65
2022/08/11 11:19:58;;;;;;;4.15;1.70;;;26.70;94.60;;;;;;5101802;28;20049;-66
2022/08/11 11:22:37;;;;;;;2.45;2.08;;;26.70;94.50;;;;;;5106647;28;20059;-65
2022/08/11 11:25:24;;;;;;;4.32;1.70;;;26.70;94.70;;;;;;5102318;28;20177;-65
2022/08/11 11:28:14;;;;;;;2.83;1.77;;;26.80;95.00;;;;;;5102075;28;20059;-65
2022/08/11 11:31:10;;;;;;;4.70;2.10;;;26.80;94.90;;;;;;5099292;28;20050;-66
2022/08/11 11:34:09;;;;;;;7.53;2.25;;;27.00;95.10;;;;;;5099565;28;20048;-66
2022/08/11 11:36:48;;;;;;;5.18;2.00;;;27.00;94.70;;;;;;5099589;28;20044;-66
2022/08/11 11:39:19;;;;;;;3.25;2.03;;;27.10;94.50;;;;;;5097814;28;20052;-65
2022/08/11 11:41:45;;;;;;;4.30;2.00;;;27.10;93.50;;;;;;5102658;28;20032;-65
2022/08/11 11:44:12;;;;;;;7.32;2.25;;;27.40;93.80;;;;;;5103942;28;20054;-66
2022/08/11 11:46:40;;;;;;;4.53;1.90;;;27.50;93.30;;;;;;5101439;28;20076;-65
2022/08/11 11:49:08;;;;;;;4.57;2.10;;;27.50;93.20;;;;;;5098357;28;20377;-65
2022/08/11 11:51:35;;;;;;;2.03;1.83;;;27.40;92.70;;;;;;5104921;28;20488;-65
2022/08/11 11:54:03;;;;;;;7.20;2.20;;;27.40;92.80;;;;;;5103023;28;20048;-66
2022/08/11 11:56:30;;;;;;;6.57;2.28;;;27.40;93.30;;;;;;5105224;28;20293;-66
2022/08/11 12:01:44;;;;;;;3.40;1.95;;;27.50;93.00;;;;;;5098067;28;20051;-65
2022/08/11 12:04:12;;;;;;;5.45;2.15;;;27.70;93.00;;;;;;5101118;28;20131;-66
2022/08/11 12:06:39;;;;;;;2.55;1.83;;;27.90;93.20;;;;;;5104563;28;20051;-65
2022/08/11 12:09:05;;;;;;;2.63;1.75;;;27.90;92.60;;;;;;5097358;28;20052;-65
2022/08/11 12:14:18;;;;;;;3.67;1.85;;;27.80;92.30;;;;;;5099726;28;20040;-66
2022/08/11 12:16:46;;;;;;;4.30;2.10;;;27.90;92.10;;;;;;5104413;28;20048;-66
2022/08/11 12:19:24;;;;;;;4.00;2.05;;;27.90;92.10;;;;;;5102214;28;20059;-65
2022/08/11 12:27:23;;;;;;;2.72;1.88;;;28.00;91.90;;;;;;5100302;28;20051;-66
2022/08/11 12:29:55;;;;;;;5.15;2.15;;;28.10;91.60;;;;;;5103495;28;20064;-65
2022/08/11 12:32:24;;;;;;;2.58;1.75;;;28.10;91.20;;;;;;5102262;28;20036;-66
2022/08/11 12:34:50;;;;;;;2.75;1.90;;;28.10;91.40;;;;;;5095751;28;20056;-66
2022/08/11 12:37:22;;;;;;;1.98;1.60;;;28.30;91.60;;;;;;5099488;28;20058;-66
2022/08/11 12:45:28;;;;;;;2.40;1.80;;;28.60;91.30;;;;;;5102818;28;20111;-66
2022/08/11 12:54:05;;;;;;;3.75;1.90;;;28.90;90.20;;;;;;5104182;28;20071;-65
2022/08/11 13:05:03;;;;;;;6.22;1.70;;;29.20;91.00;;;;;;5102052;28;20048;-66
2022/08/11 13:07:31;;;;;;;4.20;2.00;;;29.30;90.50;;;;;;5103441;28;20538;-66
2022/08/11 13:09:58;;;;;;;3.50;1.85;;;29.40;90.10;;;;;;5095687;28;20493;-66
2022/08/11 13:15:14;;;;;;;3.83;1.80;;;29.50;89.80;;;;;;5101502;28;20052;-66
2022/08/11 13:17:41;;;;;;;3.50;2.03;;;29.50;89.70;;;;;;5099727;28;20116;-66
2022/08/11 13:20:12;;;;;;;2.63;1.77;;;29.70;89.70;;;;;;5102361;28;20051;-66
2022/08/11 13:22:44;;;;;;;5.13;2.13;;;29.70;89.30;;;;;;5089324;28;20048;-66
2022/08/11 13:25:11;;;;;;;3.00;1.77;;;29.80;89.40;;;;;;5090380;28;20048;-66
2022/08/11 13:27:37;;;;;;;3.10;1.88;;;29.90;89.60;;;;;;5100679;28;20110;-66
2022/08/11 13:32:49;;;;;;;5.55;1.80;;;30.10;86.90;;;;;;5102944;28;20062;-66
2022/08/11 13:35:15;;;;;;;5.13;1.85;;;30.20;88.00;;;;;;5094976;28;20051;-66
2022/08/11 13:37:44;;;;;;;4.13;1.92;;;30.50;87.40;;;;;;5101934;28;20981;-65
2022/08/11 13:40:11;;;;;;;6.00;2.00;;;30.70;87.10;;;;;;5100149;28;20520;-66
2022/08/11 13:42:39;;;;;;;3.08;1.90;;;30.80;85.70;;;;;;5102265;28;20039;-66
2022/08/11 13:45:06;;;;;;;2.97;1.67;;;31.00;85.40;;;;;;5102655;28;20477;-66
2022/08/11 13:47:35;;;;;;;4.80;2.00;;;31.20;85.30;;;;;;5099499;28;20052;-66
2022/08/11 13:50:01;;;;;;;3.80;1.90;;;31.70;84.80;;;;;;5092651;28;20040;-66
2022/08/11 13:52:28;;;;;;;1.95;1.67;;;32.50;83.80;;;;;;5080426;28;20109;-66
2022/08/11 13:54:55;;;;;;;2.65;1.67;;;33.40;83.90;;;;;;5099811;28;20407;-66
2022/08/11 13:57:21;;;;;;;1.88;1.67;;;34.20;82.10;;;;;;5097133;28;20051;-66
2022/08/11 14:00:08;;;;;;;2.30;1.50;;;34.90;78.40;;;;;;5100960;28;20044;-66
2022/08/11 14:02:36;;;;;;;2.53;1.60;;;35.50;75.80;;;;;;5096878;28;20036;-66
2022/08/11 14:05:16;;;;;;;3.67;1.27;;;36.30;76.60;;;;;;5090994;28;20066;-66
2022/08/11 14:08:00;;;;;;;4.00;1.20;;;36.90;75.00;;;;;;5098787;28;20044;-66
2022/08/11 14:10:30;;;;;;;3.35;1.70;;;37.50;73.30;;;;;;5098857;28;20137;-66
2022/08/11 14:15:48;;;;;;;2.95;1.38;;;38.40;70.10;;;;;;5092343;28;20059;-64
2022/08/11 14:18:25;;;;;;;4.70;1.60;;;38.60;67.60;;;;;;5083480;28;20055;-64
2022/08/11 14:23:48;;;;;;;2.40;1.23;;;39.20;65.20;;;;;;5102161;28;20067;-64
2022/08/11 14:26:22;;;;;;;5.05;1.40;;;39.50;64.60;;;;;;5099551;28;20044;-64
2022/08/11 14:28:54;;;;;;;2.42;1.60;;;39.90;63.10;;;;;;5100507;28;20591;-64
2022/08/11 14:31:24;;;;;;;1.80;1.20;;;40.20;61.70;;;;;;5089746;28;20048;-64
2022/08/11 14:33:53;;;;;;;2.92;1.48;;;40.80;60.70;;;;;;5099701;28;20048;-64
2022/08/11 14:36:21;;;;;;;2.42;1.63;;;40.90;59.90;;;;;;5101147;28;20056;-64
2022/08/11 14:38:48;;;;;;;4.25;1.20;;;40.90;59.00;;;;;;5095519;28;20100;-64
2022/08/11 14:49:28;;;;;;;2.92;1.30;;;40.90;56.70;;;;;;5090619;28;20145;-64
2022/08/11 14:51:57;;;;;;;4.00;1.38;;;41.40;56.10;;;;;;5096307;28;20051;-65
2022/08/11 14:57:14;;;;;;;4.63;1.58;;;42.00;54.00;;;;;;5098289;28;20059;-65
2022/08/11 14:59:42;;;;;;;3.63;1.30;;;42.30;54.90;;;;;;5101360;28;20051;-65
2022/08/11 15:04:57;;;;;;;2.85;1.55;;;42.00;54.70;;;;;;5101088;28;20051;-65
2022/08/11 15:07:28;;;;;;;2.50;1.40;;;42.30;54.40;;;;;;5102043;28;20059;-65
2022/08/11 15:09:57;;;;;;;2.83;1.45;;;42.40;54.10;;;;;;5089315;28;20040;-65
2022/08/11 15:12:23;;;;;;;3.72;1.40;;;42.90;53.60;;;;;;5104289;28;20040;-65
2022/08/11 15:17:37;;;;;;;3.47;1.30;;;43.40;52.60;;;;;;5100767;28;20100;-65
2022/08/11 15:25:41;;;;;;;3.38;1.38;;;42.80;52.10;;;;;;5096546;28;20052;-65
2022/08/11 15:45:54;;;;;;;5.70;1.70;;;42.90;51.00;;;;;;5064642;28;20108;-65
2022/08/11 15:48:32;;;;;;;4.10;1.45;;;43.10;51.00;;;;;;5077437;28;20049;-65
2022/08/11 15:51:09;;;;;;;1.77;1.30;;;42.90;51.00;;;;;;5065406;28;20123;-65
2022/08/11 15:53:42;;;;;;;2.80;1.45;;;43.30;49.90;;;;;;5063384;28;20500;-65
2022/08/11 15:56:10;;;;;;;4.95;1.67;;;43.10;50.40;;;;;;5082031;28;20063;-65
2022/08/11 16:04:15;;;;;;;6.32;1.45;;;42.90;50.70;;;;;;5062587;28;20456;-65
2022/08/11 16:06:52;;;;;;;4.55;1.40;;;43.10;49.70;;;;;;5081390;28;20045;-65
2022/08/11 16:09:26;;;;;;;6.22;1.80;;;43.50;50.30;;;;;;5058307;28;20044;-65
2022/08/11 16:11:55;;;;;;;3.30;1.30;;;43.90;49.70;;;;;;5082843;28;20067;-65
2022/08/11 16:17:10;;;;;;;1.35;1.10;;;43.20;49.90;;;;;;5076717;28;20090;-65
2022/08/11 16:19:38;;;;;;;1.67;1.20;;;42.60;49.70;;;;;;5056197;28;20070;-64
2022/08/11 16:22:08;;;;;;;2.42;1.50;;;41.70;50.60;;;;;;5067403;28;20037;-64
2022/08/11 16:24:43;;;;;;;2.83;1.38;;;41.00;50.80;;;;;;5062946;28;20059;-65
2022/08/11 16:27:12;;;;;;;1.70;1.38;;;40.50;50.40;;;;;;5065346;28;20064;-65
2022/08/11 16:29:42;;;;;;;2.45;1.50;;;40.30;51.00;;;;;;5077870;28;20040;-65
2022/08/11 16:32:19;;;;;;;2.50;1.73;;;40.00;50.90;;;;;;5075609;28;20048;-64
2022/08/11 16:40:21;;;;;;;3.58;1.40;;;37.50;52.80;;;;;;5093825;28;20055;-65
2022/08/11 16:48:22;;;;;;;2.60;1.67;;;35.60;54.80;;;;;;5080629;28;20428;-66
2022/08/11 16:50:48;;;;;;;2.35;1.38;;;35.10;55.10;;;;;;5086268;28;20043;-66
2022/08/11 16:53:16;;;;;;;7.95;1.67;;;34.60;55.80;;;;;;5101375;28;20051;-66
2022/08/11 16:55:45;;;;;;;3.63;2.00;;;34.30;57.10;;;;;;5082098;28;20516;-66
2022/08/11 17:00:57;;;;;;;2.17;1.70;;;33.60;58.40;;;;;;5103362;28;20042;-66
2022/08/11 17:14:56;;;;;;;3.53;1.90;;;32.20;59.50;;;;;;5075009;28;20106;-66
2022/08/11 17:17:41;;;;;;;24.27;2.70;;;32.00;60.80;;;;;;5080948;28;20050;-66
2022/08/11 17:20:11;;;;;;;3.15;1.85;;;31.90;61.40;;;;;;5085402;28;20044;-66
2022/08/11 17:25:27;;;;;;;3.30;1.77;;;31.60;61.40;;;;;;5088425;28;20082;-66
2022/08/11 17:27:55;;;;;;;2.67;1.80;;;31.50;61.30;;;;;;5086755;28;20044;-66
2022/08/11 17:35:27;;;;;;;5.63;2.10;;;31.40;61.30;;;;;;5081509;28;20053;-66
2022/08/11 17:35:57;;;;;;;7.63;1.88;;;31.10;62.80;;;;;;5105086;28;20109;-66
2022/08/11 17:38:24;;;;;;;6.35;2.20;;;31.00;63.10;;;;;;5085615;28;20056;-66
2022/08/11 17:49:19;;;;;;;3.25;2.08;;;31.90;64.20;;;;;;5094482;28;20106;-66
2022/08/11 18:00:06;;;;;;;5.68;2.13;;;32.60;63.00;;;;;;5081107;28;20055;-66
2022/08/11 18:05:22;;;;;;;5.50;2.15;;;31.90;65.10;;;;;;5098238;28;20078;-66
